Time;durP1;ratioP1;P1;durP2;ratioP2;P2;SDS_P1;SDS_P2;PMS_P1;PMS_P2;Temp;Humidity;BMP_temperature;BMP_pressure;BME280_temperature;BME280_humidity;BME280_pressure;Samples;Min_cycle;Max_cycle;Signal;HPM_P1;HPM_P2
2022/10/22 00:01:27;;;;;;;1999.90;999.90;;;13.80;99.90;;;;;;5065886;28;20461;-65
2022/10/22 00:03:54;;;;;;;1999.90;999.90;;;13.70;99.90;;;;;;5067248;28;20440;-64
2022/10/22 00:06:20;;;;;;;1999.90;999.90;;;13.80;99.90;;;;;;5068887;28;20450;-66
2022/10/22 00:08:49;;;;;;;1999.90;999.90;;;13.70;99.90;;;;;;5068277;28;20505;-65
2022/10/22 00:11:17;;;;;;;1999.90;999.90;;;13.70;99.90;;;;;;5067433;28;20447;-65
2022/10/22 00:13:44;;;;;;;1999.90;999.90;;;13.70;99.90;;;;;;5068351;28;20454;-65
2022/10/22 00:16:11;;;;;;;1999.90;999.90;;;13.70;99.90;;;;;;5068031;28;20439;-65
2022/10/22 00:18:39;;;;;;;1999.90;999.90;;;13.70;99.90;;;;;;5069575;28;20467;-65
2022/10/22 00:21:06;;;;;;;1999.90;999.90;;;13.70;99.90;;;;;;5069412;28;20443;-65
2022/10/22 00:23:34;;;;;;;1999.90;999.90;;;13.70;99.90;;;;;;5069304;28;20450;-65
2022/10/22 00:26:02;;;;;;;1999.90;999.90;;;13.70;99.90;;;;;;5068401;28;20439;-65
2022/10/22 00:28:28;;;;;;;1999.90;999.90;;;13.60;99.90;;;;;;5069824;28;20731;-65
2022/10/22 00:30:57;;;;;;;1999.90;999.90;;;13.60;99.90;;;;;;5069329;28;20443;-65
2022/10/22 00:33:24;;;;;;;1999.90;999.90;;;13.60;99.90;;;;;;5069456;28;20455;-65
2022/10/22 00:35:51;;;;;;;1999.90;999.90;;;13.50;99.90;;;;;;5069288;28;20458;-65
2022/10/22 00:38:17;;;;;;;1999.90;999.90;;;13.50;99.90;;;;;;5069735;28;20474;-65
2022/10/22 00:40:44;;;;;;;1999.90;999.90;;;13.50;99.90;;;;;;5069340;28;20482;-65
2022/10/22 00:43:13;;;;;;;1999.90;999.90;;;13.50;99.90;;;;;;5069202;28;20442;-65
2022/10/22 00:45:41;;;;;;;1999.90;999.90;;;13.50;99.90;;;;;;5069342;28;20442;-65
2022/10/22 00:48:10;;;;;;;1999.90;999.90;;;13.50;99.90;;;;;;5069660;28;20466;-65
2022/10/22 00:50:40;;;;;;;1999.90;999.90;;;13.50;99.90;;;;;;5069191;28;20450;-65
2022/10/22 00:53:10;;;;;;;1999.90;999.90;;;13.50;99.90;;;;;;5069500;28;20915;-65
2022/10/22 00:55:38;;;;;;;1999.90;999.90;;;13.50;99.90;;;;;;5069413;28;20937;-65
2022/10/22 00:58:04;;;;;;;1999.90;999.90;;;13.50;99.90;;;;;;5069674;28;20475;-65
2022/10/22 01:00:33;;;;;;;1999.90;999.90;;;13.50;99.90;;;;;;5069806;28;20483;-65
2022/10/22 01:03:00;;;;;;;1999.90;999.90;;;13.50;99.90;;;;;;5069305;28;20459;-65
2022/10/22 01:05:29;;;;;;;1999.90;999.90;;;13.50;99.90;;;;;;5069385;28;20450;-65
2022/10/22 01:07:55;;;;;;;1999.90;999.90;;;13.40;99.90;;;;;;5073432;28;20466;-65
2022/10/22 01:10:44;;;;;;;1999.90;999.90;;;13.40;99.90;;;;;;5073316;28;20443;-65
2022/10/22 01:13:23;;;;;;;1999.90;999.90;;;13.50;99.90;;;;;;5072826;28;20447;-65
2022/10/22 01:16:00;;;;;;;1999.90;999.90;;;13.40;99.90;;;;;;5072978;28;20431;-65
2022/10/22 01:18:36;;;;;;;1999.90;999.90;;;13.40;99.90;;;;;;5073205;28;20831;-65
2022/10/22 01:21:19;;;;;;;1999.90;999.90;;;13.40;99.90;;;;;;5072571;28;20481;-65
2022/10/22 01:24:14;;;;;;;1999.90;999.90;;;13.40;99.90;;;;;;5072735;28;20957;-65
2022/10/22 01:26:56;;;;;;;1999.90;999.90;;;13.40;99.90;;;;;;5070290;28;20465;-65
2022/10/22 01:29:29;;;;;;;1999.90;999.90;;;13.40;99.90;;;;;;5073086;28;20450;-65
2022/10/22 01:32:02;;;;;;;1999.90;999.90;;;13.40;99.90;;;;;;5072061;28;20450;-65
2022/10/22 01:34:30;;;;;;;1999.90;999.90;;;13.40;99.90;;;;;;5072645;28;20454;-65
2022/10/22 01:36:59;;;;;;;1999.90;999.90;;;13.40;99.90;;;;;;5073007;28;20968;-65
2022/10/22 01:39:29;;;;;;;1999.90;999.90;;;13.50;99.90;;;;;;5072833;28;20481;-65
2022/10/22 01:41:56;;;;;;;1999.90;999.90;;;13.40;99.90;;;;;;5072051;28;20438;-65
2022/10/22 01:44:29;;;;;;;1999.90;999.90;;;13.40;99.90;;;;;;5073038;28;20454;-65
2022/10/22 01:47:07;;;;;;;1999.90;999.90;;;13.40;99.90;;;;;;5073315;28;20467;-65
2022/10/22 01:49:48;;;;;;;1999.90;999.90;;;13.40;99.90;;;;;;5073179;28;20446;-65
2022/10/22 01:52:27;;;;;;;1999.90;999.90;;;13.50;99.90;;;;;;5071523;28;20450;-65
2022/10/22 01:55:03;;;;;;;1999.90;999.90;;;13.50;99.90;;;;;;5072108;28;20473;-65
2022/10/22 01:57:36;;;;;;;1999.90;999.90;;;13.40;99.90;;;;;;5072450;28;20477;-65
2022/10/22 02:00:08;;;;;;;1999.90;999.90;;;13.50;99.90;;;;;;5072314;28;20489;-65
2022/10/22 02:02:41;;;;;;;1999.90;999.90;;;13.50;99.90;;;;;;5071492;28;20450;-65
2022/10/22 02:05:12;;;;;;;1999.90;999.90;;;13.50;99.90;;;;;;5072033;28;20447;-66
2022/10/22 02:07:43;;;;;;;1999.90;999.90;;;13.50;99.90;;;;;;5072384;28;20485;-66
2022/10/22 02:10:11;;;;;;;1999.90;999.90;;;13.50;99.90;;;;;;5072279;28;20463;-65
2022/10/22 02:12:40;;;;;;;1999.90;999.90;;;13.50;99.90;;;;;;5071285;28;20454;-65
2022/10/22 02:15:10;;;;;;;1999.90;999.90;;;13.50;99.90;;;;;;5071177;28;20443;-65
2022/10/22 02:17:39;;;;;;;1999.90;999.90;;;13.50;99.90;;;;;;5071483;28;21210;-65
2022/10/22 02:20:09;;;;;;;1999.90;999.90;;;13.60;99.90;;;;;;5071755;28;20475;-65
2022/10/22 02:22:36;;;;;;;1999.90;999.90;;;13.60;99.90;;;;;;5071150;28;20451;-65
2022/10/22 02:25:04;;;;;;;1999.90;999.90;;;13.60;99.90;;;;;;5071533;28;20501;-65
2022/10/22 02:27:35;;;;;;;1999.90;999.90;;;13.50;99.90;;;;;;5071666;28;20547;-65
2022/10/22 02:30:05;;;;;;;1999.90;999.90;;;13.50;99.90;;;;;;5071919;28;20443;-65
2022/10/22 02:32:38;;;;;;;1999.90;999.90;;;13.50;99.90;;;;;;5070914;28;20968;-65
2022/10/22 02:35:07;;;;;;;1999.90;999.90;;;13.50;99.90;;;;;;5071068;28;20462;-65
2022/10/22 02:37:34;;;;;;;1999.90;999.90;;;13.40;99.90;;;;;;5071554;28;20471;-65
2022/10/22 02:40:01;;;;;;;1999.90;999.90;;;13.40;99.90;;;;;;5071267;28;20475;-65
2022/10/22 02:42:29;;;;;;;1999.90;999.90;;;13.40;99.90;;;;;;5070903;28;20462;-65
2022/10/22 02:44:55;;;;;;;1999.90;999.90;;;13.40;99.90;;;;;;5071127;28;20451;-65
2022/10/22 02:47:22;;;;;;;1999.90;999.90;;;13.40;99.90;;;;;;5071348;28;20474;-65
2022/10/22 02:49:50;;;;;;;1999.90;999.90;;;13.40;99.90;;;;;;5071473;28;20975;-65
2022/10/22 02:52:17;;;;;;;1999.90;999.90;;;13.50;99.90;;;;;;5070489;28;20964;-65
2022/10/22 02:54:44;;;;;;;1999.90;999.90;;;13.40;99.90;;;;;;5070677;28;20450;-65
2022/10/22 02:57:11;;;;;;;1999.90;999.90;;;13.40;99.90;;;;;;5071456;28;21037;-65
2022/10/22 02:59:37;;;;;;;1999.90;999.90;;;13.50;99.90;;;;;;5071386;28;20479;-65
2022/10/22 03:02:04;;;;;;;1999.90;999.90;;;13.50;99.90;;;;;;5070619;28;20454;-65
2022/10/22 03:04:31;;;;;;;1999.90;999.90;;;13.40;99.90;;;;;;5071021;28;20443;-65
2022/10/22 03:06:59;;;;;;;1999.90;999.90;;;13.40;99.90;;;;;;5071158;28;20469;-66
2022/10/22 03:09:26;;;;;;;1999.90;999.90;;;13.40;99.90;;;;;;5070963;28;20443;-66
2022/10/22 03:11:53;;;;;;;1999.90;999.90;;;13.50;99.90;;;;;;5070065;28;21173;-65
2022/10/22 03:14:20;;;;;;;1999.90;999.90;;;13.40;99.90;;;;;;5070695;28;20446;-65
2022/10/22 03:16:46;;;;;;;1999.90;999.90;;;13.40;99.90;;;;;;5070682;28;20454;-65
2022/10/22 03:19:13;;;;;;;1999.90;999.90;;;13.40;99.90;;;;;;5070955;28;20465;-65
2022/10/22 03:21:45;;;;;;;1999.90;999.90;;;13.40;99.90;;;;;;5069867;28;20847;-65
2022/10/22 03:24:17;;;;;;;1999.90;999.90;;;13.40;99.90;;;;;;5070920;28;20443;-65
2022/10/22 03:26:46;;;;;;;1999.90;999.90;;;13.40;99.90;;;;;;5070772;28;20447;-65
2022/10/22 03:29:15;;;;;;;1999.90;999.90;;;13.40;99.90;;;;;;5069783;28;20945;-65
2022/10/22 03:31:42;;;;;;;1999.90;999.90;;;13.40;99.90;;;;;;5069838;28;20447;-65
2022/10/22 03:34:10;;;;;;;1999.90;999.90;;;13.30;99.90;;;;;;5070227;28;20454;-65
2022/10/22 03:36:37;;;;;;;1999.90;999.90;;;13.30;99.90;;;;;;5070191;28;20484;-66
2022/10/22 03:39:05;;;;;;;1999.90;999.90;;;13.30;99.90;;;;;;5070250;28;20530;-65
2022/10/22 03:41:33;;;;;;;1999.90;999.90;;;13.40;99.90;;;;;;5069987;28;20533;-65
2022/10/22 03:44:01;;;;;;;1999.90;999.90;;;13.30;99.90;;;;;;5069834;28;20458;-66
2022/10/22 03:46:28;;;;;;;1999.90;999.90;;;13.40;99.90;;;;;;5069897;28;20623;-65
2022/10/22 03:48:55;;;;;;;1999.90;999.90;;;13.40;99.90;;;;;;5070015;28;20816;-65
2022/10/22 03:51:22;;;;;;;1999.90;999.90;;;13.30;99.90;;;;;;5069951;28;20435;-65
2022/10/22 03:53:48;;;;;;;1999.90;999.90;;;13.30;99.90;;;;;;5069830;28;20454;-66
2022/10/22 03:56:15;;;;;;;1999.90;999.90;;;13.30;99.90;;;;;;5069809;28;20447;-65
2022/10/22 03:58:43;;;;;;;1999.90;999.90;;;13.30;99.90;;;;;;5069892;28;20490;-65
2022/10/22 04:01:12;;;;;;;1999.90;999.90;;;13.30;99.90;;;;;;5069518;28;20479;-66
2022/10/22 04:03:39;;;;;;;1999.90;999.90;;;13.30;99.90;;;;;;5069508;28;20451;-65
2022/10/22 04:06:08;;;;;;;1999.90;999.90;;;13.40;99.90;;;;;;5069804;28;20443;-66
2022/10/22 04:08:38;;;;;;;1999.90;999.90;;;13.40;99.90;;;;;;5070175;28;20471;-65
2022/10/22 04:11:05;;;;;;;1999.90;999.90;;;13.40;99.90;;;;;;5069601;28;20447;-65
2022/10/22 04:13:32;;;;;;;1999.90;999.90;;;13.40;99.90;;;;;;5069215;28;20442;-65
2022/10/22 04:16:08;;;;;;;1999.90;999.90;;;13.40;99.90;;;;;;5069232;28;20451;-66
2022/10/22 04:18:36;;;;;;;1999.90;999.90;;;13.50;99.90;;;;;;5069831;28;20463;-65
2022/10/22 04:21:03;;;;;;;1999.90;999.90;;;13.40;99.90;;;;;;5069405;28;20483;-65
2022/10/22 04:23:30;;;;;;;1999.90;999.90;;;13.40;99.90;;;;;;5069433;28;20442;-65
2022/10/22 04:25:58;;;;;;;1999.90;999.90;;;13.40;99.90;;;;;;5069315;28;20843;-66
2022/10/22 04:28:25;;;;;;;1999.90;999.90;;;13.40;99.90;;;;;;5069449;28;20463;-66
2022/10/22 04:30:52;;;;;;;1999.90;999.90;;;13.40;99.90;;;;;;5069503;28;20819;-65
2022/10/22 04:33:20;;;;;;;1999.90;999.90;;;13.30;99.90;;;;;;5069517;28;20494;-66
2022/10/22 04:35:47;;;;;;;1999.90;999.90;;;13.30;99.90;;;;;;5069277;28;20451;-65
2022/10/22 04:38:14;;;;;;;1999.90;999.90;;;13.20;99.90;;;;;;5069708;28;20482;-65
2022/10/22 04:40:41;;;;;;;1999.90;999.90;;;13.20;99.90;;;;;;5071448;28;20474;-65
2022/10/22 04:43:08;;;;;;;1999.90;999.90;;;13.20;99.90;;;;;;5073176;28;20454;-65
2022/10/22 04:45:35;;;;;;;1999.90;999.90;;;13.10;99.90;;;;;;5073496;28;20453;-65
2022/10/22 04:48:02;;;;;;;1999.90;999.90;;;13.10;99.90;;;;;;5073593;28;20471;-66
2022/10/22 04:50:30;;;;;;;1999.90;999.90;;;13.10;99.90;;;;;;5073729;28;20933;-66
2022/10/22 04:52:56;;;;;;;1999.90;999.90;;;13.00;99.90;;;;;;5072786;28;20447;-66
2022/10/22 04:55:23;;;;;;;1999.90;999.90;;;12.90;99.90;;;;;;5073240;28;20446;-65
2022/10/22 04:57:50;;;;;;;1999.90;999.90;;;13.00;99.90;;;;;;5073213;28;20483;-65
2022/10/22 05:00:17;;;;;;;1999.90;999.90;;;13.00;99.90;;;;;;5073652;28;20479;-65
2022/10/22 05:02:49;;;;;;;1999.90;999.90;;;13.00;99.90;;;;;;5072725;28;20618;-65
2022/10/22 05:05:16;;;;;;;1999.90;999.90;;;13.10;99.90;;;;;;5073161;28;21018;-65
2022/10/22 05:07:44;;;;;;;1999.90;999.90;;;13.10;99.90;;;;;;5073465;28;20475;-65
2022/10/22 05:10:10;;;;;;;1999.90;999.90;;;13.10;99.90;;;;;;5073440;28;20462;-65
2022/10/22 05:12:37;;;;;;;1999.90;999.90;;;13.10;99.90;;;;;;5072696;28;20443;-65
2022/10/22 05:15:05;;;;;;;1999.90;999.90;;;13.20;99.90;;;;;;5073060;28;20447;-65
2022/10/22 05:17:34;;;;;;;1999.90;999.90;;;13.20;99.90;;;;;;5073087;28;20485;-64
2022/10/22 05:20:01;;;;;;;1999.90;999.90;;;13.20;99.90;;;;;;5073188;28;20443;-64
2022/10/22 05:22:28;;;;;;;1999.90;999.90;;;13.30;99.90;;;;;;5072227;28;20466;-64
2022/10/22 05:24:56;;;;;;;1999.90;999.90;;;13.30;99.90;;;;;;5072827;28;20446;-65
2022/10/22 05:27:23;;;;;;;1999.90;999.90;;;13.20;99.90;;;;;;5072884;28;20466;-64
2022/10/22 05:29:49;;;;;;;1999.90;999.90;;;13.30;99.90;;;;;;5073056;28;20442;-64
2022/10/22 05:32:16;;;;;;;1999.90;999.90;;;13.30;99.90;;;;;;5072123;28;20794;-64
2022/10/22 05:34:43;;;;;;;1999.90;999.90;;;13.30;99.90;;;;;;5072198;28;20462;-65
2022/10/22 05:37:10;;;;;;;1999.90;999.90;;;13.30;99.90;;;;;;5072510;28;20983;-64
2022/10/22 05:39:39;;;;;;;1999.90;999.90;;;13.30;99.90;;;;;;5072629;28;20970;-66
2022/10/22 05:42:07;;;;;;;1999.90;999.90;;;13.30;99.90;;;;;;5071974;28;20691;-64
2022/10/22 05:44:34;;;;;;;1999.90;999.90;;;13.30;99.90;;;;;;5072702;28;20459;-64
2022/10/22 05:47:01;;;;;;;1999.90;999.90;;;13.20;99.90;;;;;;5069834;28;20477;-64
2022/10/22 05:49:28;;;;;;;1999.90;999.90;;;13.20;99.90;;;;;;5072327;28;20838;-65
2022/10/22 05:51:54;;;;;;;1999.90;999.90;;;13.20;99.90;;;;;;5071136;28;20443;-64
2022/10/22 05:54:22;;;;;;;1999.90;999.90;;;13.20;99.90;;;;;;5072126;28;20446;-64
2022/10/22 05:56:48;;;;;;;1999.90;999.90;;;13.20;99.90;;;;;;5072430;28;20865;-64
2022/10/22 05:59:16;;;;;;;1999.90;999.90;;;13.20;99.90;;;;;;5072147;28;20454;-64
2022/10/22 06:01:43;;;;;;;1999.90;999.90;;;13.20;99.90;;;;;;5071319;28;20474;-64
2022/10/22 06:04:12;;;;;;;1999.90;999.90;;;13.30;99.90;;;;;;5071960;28;20478;-64
2022/10/22 06:06:42;;;;;;;1999.90;999.90;;;13.30;99.90;;;;;;5072060;28;20447;-64
2022/10/22 06:09:15;;;;;;;1999.90;999.90;;;13.20;99.90;;;;;;5072226;28;20443;-64
2022/10/22 06:11:42;;;;;;;1999.90;999.90;;;13.20;99.90;;;;;;5071307;28;20470;-64
2022/10/22 06:14:09;;;;;;;1999.90;999.90;;;13.10;99.90;;;;;;5072012;28;20439;-65
2022/10/22 06:16:38;;;;;;;1999.90;999.90;;;13.00;99.90;;;;;;5071409;28;20454;-64
2022/10/22 06:19:05;;;;;;;1999.90;999.90;;;12.90;99.90;;;;;;5072214;28;20451;-64
2022/10/22 06:21:32;;;;;;;1999.90;999.90;;;12.90;99.90;;;;;;5071354;28;20483;-64
2022/10/22 06:24:00;;;;;;;1999.90;999.90;;;12.90;99.90;;;;;;5071644;28;20443;-64
2022/10/22 06:26:26;;;;;;;1999.90;999.90;;;12.90;99.90;;;;;;5071300;28;20454;-64
2022/10/22 06:28:54;;;;;;;1999.90;999.90;;;12.90;99.90;;;;;;5071826;28;20463;-64
2022/10/22 06:31:21;;;;;;;1999.90;999.90;;;13.00;99.90;;;;;;5071355;28;20489;-65
2022/10/22 06:33:49;;;;;;;1999.90;999.90;;;12.90;99.90;;;;;;5070722;28;20443;-65
2022/10/22 06:36:18;;;;;;;1999.90;999.90;;;13.00;99.90;;;;;;5062391;28;20522;-66
2022/10/22 06:38:45;;;;;;;1999.90;999.90;;;13.00;99.90;;;;;;5052886;28;21020;-65
2022/10/22 06:41:13;;;;;;;1999.90;999.90;;;13.00;99.90;;;;;;5052568;28;20488;-66
2022/10/22 06:43:40;;;;;;;1999.90;999.90;;;13.10;99.90;;;;;;5054378;28;20490;-66
2022/10/22 06:46:09;;;;;;;1999.90;999.90;;;13.10;99.90;;;;;;5052930;28;20451;-65
2022/10/22 06:48:37;;;;;;;1999.90;999.90;;;13.10;99.90;;;;;;5053946;28;21000;-65
2022/10/22 06:51:07;;;;;;;1999.90;999.90;;;13.00;99.90;;;;;;5054194;28;20478;-63
2022/10/22 06:53:34;;;;;;;1999.90;999.90;;;13.00;99.90;;;;;;5057426;28;20470;-63
2022/10/22 06:56:05;;;;;;;1999.90;999.90;;;13.00;99.90;;;;;;5054906;28;20558;-65
2022/10/22 06:58:32;;;;;;;1999.90;999.90;;;12.90;99.90;;;;;;5065194;28;20466;-65
2022/10/22 07:01:03;;;;;;;1999.90;999.90;;;12.90;99.90;;;;;;5059393;28;20479;-66
2022/10/22 07:03:30;;;;;;;1999.90;999.90;;;13.00;99.90;;;;;;5051853;28;20452;-65
2022/10/22 07:06:00;;;;;;;1999.90;999.90;;;13.10;99.90;;;;;;5053401;28;20446;-64
2022/10/22 07:08:28;;;;;;;1999.90;999.90;;;13.10;99.90;;;;;;5057377;28;20467;-65
2022/10/22 07:10:57;;;;;;;1999.90;999.90;;;13.20;99.90;;;;;;5052912;28;20451;-64
2022/10/22 07:13:24;;;;;;;1999.90;999.90;;;13.30;99.90;;;;;;5054424;28;20509;-64
2022/10/22 07:15:53;;;;;;;1999.90;999.90;;;13.50;99.90;;;;;;5054439;28;20833;-65
2022/10/22 07:18:20;;;;;;;1999.90;999.90;;;13.60;99.90;;;;;;5053175;28;20467;-65
2022/10/22 07:20:47;;;;;;;1999.90;999.90;;;13.70;99.90;;;;;;5053795;28;20448;-64
2022/10/22 07:23:14;;;;;;;1999.90;999.90;;;13.70;99.90;;;;;;5054197;28;20457;-64
2022/10/22 07:25:42;;;;;;;1999.90;999.90;;;13.80;99.90;;;;;;5055658;28;20448;-65
2022/10/22 07:28:09;;;;;;;1999.90;999.90;;;13.80;99.90;;;;;;5057459;28;20475;-65
2022/10/22 07:30:37;;;;;;;1999.90;999.90;;;14.00;99.90;;;;;;5057145;28;20448;-64
2022/10/22 07:33:04;;;;;;;1999.90;999.90;;;14.00;99.90;;;;;;5066878;28;20806;-65
2022/10/22 07:35:33;;;;;;;1999.90;999.90;;;14.30;99.90;;;;;;5057580;28;20452;-64
2022/10/22 07:38:00;;;;;;;1999.90;999.90;;;14.50;99.90;;;;;;5059957;28;21318;-65
2022/10/22 07:40:27;;;;;;;1999.90;999.90;;;14.40;99.90;;;;;;5066948;28;20449;-65
2022/10/22 07:42:55;;;;;;;1999.90;999.90;;;14.40;99.90;;;;;;5061269;28;20855;-65
2022/10/22 07:45:21;;;;;;;1999.90;999.90;;;14.50;99.90;;;;;;5058519;28;20467;-65
2022/10/22 07:47:48;;;;;;;1999.90;999.90;;;14.60;99.90;;;;;;5053483;28;20483;-65
2022/10/22 07:50:15;;;;;;;1999.90;999.90;;;14.70;99.90;;;;;;5061518;28;20961;-65
2022/10/22 07:52:42;;;;;;;1999.90;999.90;;;14.90;99.90;;;;;;5066251;28;20971;-65
2022/10/22 07:55:09;;;;;;;1999.90;999.90;;;15.10;99.90;;;;;;5062978;28;20736;-65
2022/10/22 07:57:36;;;;;;;1999.90;999.90;;;15.20;99.90;;;;;;5052522;28;20496;-65
2022/10/22 08:00:06;;;;;;;1999.90;999.90;;;15.30;99.90;;;;;;5062850;28;20487;-64
2022/10/22 08:02:33;;;;;;;1999.90;999.90;;;15.30;99.90;;;;;;5055345;28;20494;-66
2022/10/22 08:04:59;;;;;;;1999.90;999.90;;;15.40;99.90;;;;;;5060713;28;20455;-64
2022/10/22 08:07:26;;;;;;;1999.90;999.90;;;15.40;99.90;;;;;;5065126;28;20999;-65
2022/10/22 08:09:53;;;;;;;1999.90;999.90;;;15.40;99.90;;;;;;5063487;28;20548;-65
2022/10/22 08:12:20;;;;;;;1999.90;999.90;;;15.50;99.90;;;;;;5066567;28;20431;-66
2022/10/22 08:14:47;;;;;;;1999.90;999.90;;;15.60;99.90;;;;;;5068768;28;20952;-65
2022/10/22 08:17:15;;;;;;;1999.90;999.90;;;15.60;99.90;;;;;;5067022;28;20483;-65
2022/10/22 08:19:42;;;;;;;1999.90;999.90;;;15.70;99.90;;;;;;5063340;28;20821;-65
2022/10/22 08:22:09;;;;;;;1999.90;999.90;;;15.80;99.90;;;;;;5050997;28;20488;-65
2022/10/22 08:24:36;;;;;;;1999.90;999.90;;;15.80;99.90;;;;;;5057749;28;20451;-65
2022/10/22 08:27:02;;;;;;;1999.90;999.90;;;15.80;99.90;;;;;;5060834;28;20462;-66
2022/10/22 08:29:29;;;;;;;1999.90;999.90;;;15.70;99.90;;;;;;5062907;28;20942;-65
2022/10/22 08:31:56;;;;;;;1999.90;999.90;;;15.60;99.90;;;;;;5059439;28;20443;-65
2022/10/22 08:34:24;;;;;;;1999.90;999.90;;;15.50;99.90;;;;;;5061093;28;20459;-65
2022/10/22 08:36:51;;;;;;;1999.90;999.90;;;15.40;99.90;;;;;;5060251;28;20459;-65
2022/10/22 08:39:18;;;;;;;1999.90;999.90;;;15.40;99.90;;;;;;5056417;28;20454;-65
2022/10/22 08:41:56;;;;;;;1999.90;999.90;;;15.50;99.90;;;;;;5055469;28;20487;-65
2022/10/22 08:44:39;;;;;;;1999.90;999.90;;;15.50;99.90;;;;;;5059693;28;20970;-65
2022/10/22 08:47:27;;;;;;;1999.90;999.90;;;15.60;99.90;;;;;;5058348;28;20471;-68
2022/10/22 08:49:56;;;;;;;1999.90;999.90;;;15.70;99.90;;;;;;5058733;28;20458;-65
2022/10/22 08:52:23;;;;;;;1999.90;999.90;;;15.80;99.90;;;;;;5053590;28;20971;-66
2022/10/22 08:54:53;;;;;;;1999.90;999.90;;;15.80;99.90;;;;;;5057666;28;20474;-65
2022/10/22 08:57:41;;;;;;;1999.90;999.90;;;15.80;99.90;;;;;;5058613;28;20475;-65
2022/10/22 09:00:13;;;;;;;1999.90;999.90;;;15.90;99.90;;;;;;5060347;28;20440;-65
2022/10/22 09:02:52;;;;;;;1999.90;999.90;;;15.90;99.90;;;;;;5057618;28;20742;-65
2022/10/22 09:05:36;;;;;;;1999.90;999.90;;;15.90;99.90;;;;;;5068067;28;20541;-65
2022/10/22 09:08:03;;;;;;;1999.90;999.90;;;16.00;99.90;;;;;;5062327;28;20649;-65
2022/10/22 09:10:35;;;;;;;1999.90;999.90;;;16.10;99.90;;;;;;5063270;28;20455;-66
2022/10/22 09:13:02;;;;;;;1999.90;999.90;;;16.30;99.90;;;;;;5066618;28;20447;-66
2022/10/22 09:15:30;;;;;;;1999.90;999.90;;;16.50;99.90;;;;;;5068557;28;20446;-66
2022/10/22 09:18:10;;;;;;;1999.90;999.90;;;16.70;99.90;;;;;;5068294;28;20463;-66
2022/10/22 09:20:45;;;;;;;1999.90;999.90;;;16.90;99.90;;;;;;5068833;28;20450;-66
2022/10/22 09:23:24;;;;;;;1999.90;999.90;;;17.20;99.90;;;;;;5064965;28;20493;-66
2022/10/22 09:25:51;;;;;;;1999.90;999.90;;;17.50;99.90;;;;;;5068850;28;20451;-66
2022/10/22 09:28:19;;;;;;;1999.90;999.90;;;18.00;99.90;;;;;;5071861;28;21028;-66
2022/10/22 09:30:46;;;;;;;1999.90;999.90;;;18.50;99.90;;;;;;5072345;28;20877;-66
2022/10/22 09:33:15;;;;;;;1999.90;999.90;;;18.80;99.90;;;;;;5054532;28;20440;-66
2022/10/22 09:35:49;;;;;;;1999.90;999.90;;;19.10;99.90;;;;;;5066771;28;20458;-66
2022/10/22 09:38:19;;;;;;;1999.90;999.90;;;19.40;99.90;;;;;;5072679;28;20862;-66
2022/10/22 09:40:49;;;;;;;1999.90;999.90;;;19.70;99.90;;;;;;5071771;28;20450;-65
2022/10/22 09:43:17;;;;;;;1999.90;999.90;;;20.10;99.90;;;;;;5072368;28;20479;-65
2022/10/22 09:45:44;;;;;;;1999.90;999.90;;;20.50;99.90;;;;;;5069924;28;20447;-65
2022/10/22 09:48:18;;;;;;;1999.90;999.90;;;20.80;99.90;;;;;;5071414;28;20499;-65
2022/10/22 09:50:48;;;;;;;1999.90;999.90;;;20.90;99.90;;;;;;5054844;28;20451;-65
2022/10/22 09:53:22;;;;;;;1999.90;999.90;;;21.10;99.90;;;;;;5067856;28;20809;-66
2022/10/22 09:55:52;;;;;;;1999.90;999.90;;;21.30;99.90;;;;;;5054680;28;20454;-66
2022/10/22 09:58:20;;;;;;;1999.90;999.90;;;21.40;99.90;;;;;;5060183;28;20487;-65
2022/10/22 10:00:52;;;;;;;1999.90;999.90;;;21.70;99.90;;;;;;5058619;28;20451;-66
2022/10/22 10:03:21;;;;;;;1999.90;999.90;;;22.10;99.90;;;;;;5064258;28;20474;-66
2022/10/22 10:05:54;;;;;;;1999.90;999.90;;;22.50;99.90;;;;;;5069135;28;20450;-67
2022/10/22 10:08:22;;;;;;;1999.90;999.90;;;22.90;99.90;;;;;;5066008;28;20465;-67
2022/10/22 10:10:52;;;;;;;1999.90;999.90;;;23.00;99.90;;;;;;5071308;28;20513;-66
2022/10/22 10:13:31;;;;;;;1999.90;999.90;;;23.00;99.90;;;;;;5071625;28;20443;-67
2022/10/22 10:16:05;;;;;;;1999.90;999.90;;;22.90;99.90;;;;;;5068615;28;20537;-66
2022/10/22 10:18:48;;;;;;;1999.90;999.90;;;23.40;99.90;;;;;;5071807;28;20481;-65
2022/10/22 10:21:23;;;;;;;1999.90;999.90;;;23.50;99.90;;;;;;5069300;28;20538;-67
2022/10/22 10:23:59;;;;;;;1999.90;999.90;;;23.90;99.90;;;;;;5058061;28;20474;-67
2022/10/22 10:26:33;;;;;;;1999.90;999.90;;;24.30;99.90;;;;;;5062188;28;20440;-66
2022/10/22 10:29:13;;;;;;;1999.90;999.90;;;24.80;99.90;;;;;;5061611;28;20464;-66
2022/10/22 10:31:52;;;;;;;1999.90;999.90;;;24.40;99.90;;;;;;5059702;28;20950;-67
2022/10/22 10:34:29;;;;;;;1999.90;999.90;;;24.20;99.90;;;;;;5061038;28;20459;-67
2022/10/22 10:37:05;;;;;;;1999.90;999.90;;;24.20;99.90;;;;;;5057551;28;20472;-66
2022/10/22 10:39:40;;;;;;;1999.90;999.90;;;24.00;99.90;;;;;;5057181;28;20485;-67
2022/10/22 10:42:14;;;;;;;1999.90;999.90;;;24.00;99.90;;;;;;5056999;28;20483;-66
2022/10/22 10:45:02;;;;;;;1999.90;999.90;;;23.70;99.90;;;;;;5056206;28;20457;-66
2022/10/22 10:47:55;;;;;;;1999.90;999.90;;;23.70;99.90;;;;;;5071278;28;21008;-66
2022/10/22 10:50:28;;;;;;;1999.90;999.90;;;23.30;99.90;;;;;;5057105;28;20443;-66
2022/10/22 10:53:07;;;;;;;1999.90;999.90;;;23.00;99.90;;;;;;5063974;28;20450;-66
2022/10/22 10:55:38;;;;;;;1999.90;999.90;;;22.70;99.90;;;;;;5066170;28;20462;-66
2022/10/22 10:58:16;;;;;;;1999.90;999.90;;;23.00;99.90;;;;;;5069885;28;20509;-67
2022/10/22 11:00:55;;;;;;;1999.90;999.90;;;23.20;99.90;;;;;;5069391;28;20442;-67
2022/10/22 11:03:46;;;;;;;1999.90;999.90;;;23.20;99.90;;;;;;5067345;28;20490;-67
2022/10/22 11:06:16;;;;;;;1999.90;999.90;;;23.40;99.90;;;;;;5069501;28;20455;-67
2022/10/22 11:08:53;;;;;;;1999.90;999.90;;;23.90;99.90;;;;;;5067359;28;20973;-67
2022/10/22 11:11:26;;;;;;;1999.90;999.90;;;24.30;99.90;;;;;;5066576;28;20443;-67
2022/10/22 11:13:58;;;;;;;1999.90;999.90;;;24.30;99.90;;;;;;5069313;28;20442;-72
2022/10/22 11:16:32;;;;;;;1999.90;999.90;;;24.60;99.90;;;;;;5066154;28;20467;-68
2022/10/22 11:19:05;;;;;;;1999.90;999.90;;;24.10;99.90;;;;;;5072083;28;21085;-69
2022/10/22 11:21:38;;;;;;;1999.90;999.90;;;24.80;99.90;;;;;;5068987;28;20451;-68
2022/10/22 11:24:16;;;;;;;1999.90;999.90;;;25.30;99.90;;;;;;5069404;28;20483;-68
2022/10/22 11:26:48;;;;;;;1999.90;999.90;;;25.90;99.90;;;;;;5069432;28;20451;-68
2022/10/22 11:29:21;;;;;;;1999.90;999.90;;;26.40;99.90;;;;;;5065539;28;20447;-67
2022/10/22 11:31:49;;;;;;;1999.90;999.90;;;26.80;99.90;;;;;;5068635;28;20443;-67
2022/10/22 11:34:19;;;;;;;1999.90;999.90;;;26.80;99.50;;;;;;5068181;28;20454;-67
2022/10/22 11:36:47;;;;;;;1999.90;999.90;;;26.50;99.80;;;;;;5069140;28;20455;-68
2022/10/22 11:39:36;;;;;;;1999.90;999.90;;;26.70;98.80;;;;;;5064134;28;20846;-67
2022/10/22 11:42:05;;;;;;;1999.90;999.90;;;27.10;98.00;;;;;;5066453;28;20475;-67
2022/10/22 11:44:45;;;;;;;1999.90;999.90;;;26.40;97.10;;;;;;5067281;28;20447;-67
2022/10/22 11:47:19;;;;;;;1999.90;999.90;;;26.30;97.50;;;;;;5066199;28;20478;-67
2022/10/22 11:49:55;;;;;;;1999.90;999.90;;;26.20;97.40;;;;;;5067174;28;20826;-68
2022/10/22 11:52:24;;;;;;;1999.90;999.90;;;25.80;99.20;;;;;;5058448;28;20903;-67
2022/10/22 11:54:56;;;;;;;1999.90;999.90;;;25.80;99.90;;;;;;5068442;28;20822;-67
2022/10/22 11:57:28;;;;;;;1999.90;999.90;;;25.20;99.90;;;;;;5067983;28;20520;-67
2022/10/22 11:59:58;;;;;;;1999.90;999.90;;;24.40;99.90;;;;;;5067078;28;20858;-67
2022/10/22 12:02:45;;;;;;;1999.90;999.90;;;23.20;99.90;;;;;;5064973;28;20866;-66
2022/10/22 12:05:34;;;;;;;1999.90;999.90;;;22.50;99.90;;;;;;5067820;28;20501;-67
2022/10/22 12:08:17;;;;;;;1999.90;999.90;;;21.90;99.90;;;;;;5048756;28;20460;-68
2022/10/22 12:11:04;;;;;;;1999.90;999.90;;;21.50;99.90;;;;;;5045267;28;20452;-67
2022/10/22 12:13:34;;;;;;;1999.90;999.90;;;21.30;99.90;;;;;;5059333;28;20550;-67